createdAt,value
2023-05-21T00:01:45.797Z,11.59
2023-05-21T00:04:13.213Z,11.61
2023-05-21T00:06:39.949Z,11.64
2023-05-21T00:09:07.140Z,11.56
2023-05-21T00:11:33.873Z,11.45
2023-05-21T00:14:00.658Z,11.43
2023-05-21T00:16:27.426Z,11.48
2023-05-21T00:18:54.755Z,11.52
2023-05-21T00:21:26.374Z,11.57
2023-05-21T00:23:57.124Z,11.61
2023-05-21T00:26:26.928Z,11.62
2023-05-21T00:28:54.007Z,11.61
2023-05-21T00:31:21.047Z,11.73
2023-05-21T00:33:47.803Z,11.72
2023-05-21T00:36:14.969Z,11.81
2023-05-21T00:38:43.893Z,11.76
2023-05-21T00:41:10.929Z,11.93
2023-05-21T00:43:40.385Z,11.95
2023-05-21T00:46:12.162Z,11.90
2023-05-21T00:48:39.838Z,11.91
2023-05-21T00:51:06.973Z,11.90
2023-05-21T00:53:35.719Z,12.03
2023-05-21T00:56:03.411Z,11.98
2023-05-21T00:58:31.249Z,11.91
2023-05-21T01:00:58.942Z,11.93
2023-05-21T01:03:26.419Z,11.95
2023-05-21T01:05:53.459Z,11.67
2023-05-21T01:08:21.863Z,11.80
2023-05-21T01:10:49.565Z,11.93
2023-05-21T01:13:17.851Z,11.93
2023-05-21T01:15:45.711Z,11.85
2023-05-21T01:18:14.461Z,11.85
2023-05-21T01:20:42.619Z,11.85
2023-05-21T01:23:09.610Z,11.85
2023-05-21T01:25:36.565Z,11.96
2023-05-21T01:28:03.492Z,12.04
2023-05-21T01:30:30.463Z,12.01
2023-05-21T01:33:07.844Z,12.05
2023-05-21T01:35:39.163Z,12.04
2023-05-21T01:38:18.022Z,11.95
2023-05-21T01:40:52.141Z,11.89
2023-05-21T01:43:20.175Z,11.98
2023-05-21T01:45:48.167Z,11.95
2023-05-21T01:48:17.501Z,11.97
2023-05-21T01:50:45.588Z,11.90
2023-05-21T01:53:12.404Z,11.69
2023-05-21T01:55:41.910Z,11.89
2023-05-21T01:58:08.801Z,11.86
2023-05-21T02:00:35.797Z,11.90
2023-05-21T02:03:02.655Z,11.94
2023-05-21T02:05:29.536Z,11.68
2023-05-21T02:07:57.165Z,11.73
2023-05-21T02:10:23.942Z,11.81
2023-05-21T02:12:50.975Z,11.88
2023-05-21T02:15:19.273Z,11.98
2023-05-21T02:17:46.941Z,11.97
2023-05-21T02:20:14.550Z,11.83
2023-05-21T02:22:43.563Z,11.82
2023-05-21T02:25:14.813Z,11.74
2023-05-21T02:27:42.891Z,11.77
2023-05-21T02:30:12.135Z,11.86
2023-05-21T02:32:42.711Z,11.83
2023-05-21T02:35:11.557Z,11.66
2023-05-21T02:37:40.735Z,11.59
2023-05-21T02:40:09.834Z,11.52
2023-05-21T02:42:39.742Z,11.56
2023-05-21T02:45:08.505Z,11.34
2023-05-21T02:47:35.484Z,11.47
2023-05-21T02:50:03.135Z,11.60
2023-05-21T02:52:29.889Z,11.67
2023-05-21T02:54:56.638Z,11.59
2023-05-21T02:57:23.307Z,11.52
2023-05-21T02:59:49.993Z,11.62
2023-05-21T03:02:17.408Z,11.60
2023-05-21T03:04:46.672Z,11.61
2023-05-21T03:07:14.689Z,11.50
2023-05-21T03:09:42.537Z,11.33
2023-05-21T03:12:09.984Z,11.37
2023-05-21T03:14:37.056Z,11.29
2023-05-21T03:17:06.226Z,11.34
2023-05-21T03:19:36.761Z,11.37
2023-05-21T03:22:04.736Z,11.32
2023-05-21T03:24:33.127Z,11.33
2023-05-21T03:27:01.592Z,11.17
2023-05-21T03:29:28.716Z,11.52
2023-05-21T03:32:00.840Z,11.53
2023-05-21T03:34:27.607Z,11.54
2023-05-21T03:36:54.311Z,11.61
2023-05-21T03:39:21.080Z,11.54
2023-05-21T03:41:47.745Z,11.68
2023-05-21T03:44:14.408Z,11.70
2023-05-21T03:46:41.400Z,11.72
2023-05-21T03:49:08.294Z,11.84
2023-05-21T03:51:35.020Z,11.91
2023-05-21T03:54:02.366Z,11.99
2023-05-21T03:56:29.065Z,12.01
2023-05-21T03:58:55.823Z,12.20
2023-05-21T04:01:22.877Z,12.29
2023-05-21T04:03:49.799Z,12.32
2023-05-21T04:06:17.017Z,12.33
2023-05-21T04:08:44.672Z,12.48
2023-05-21T04:11:11.376Z,12.46
2023-05-21T04:13:38.859Z,12.39
2023-05-21T04:16:09.182Z,12.42
2023-05-21T04:18:36.049Z,12.47
2023-05-21T04:21:02.758Z,12.52
2023-05-21T04:23:29.536Z,12.46
2023-05-21T04:25:56.257Z,12.59
2023-05-21T04:28:24.285Z,12.39
2023-05-21T04:30:51.239Z,12.49
2023-05-21T04:33:18.589Z,12.49
2023-05-21T04:35:51.735Z,12.49
2023-05-21T04:38:19.713Z,12.53
2023-05-21T04:40:52.873Z,12.56
2023-05-21T04:43:26.261Z,12.57
2023-05-21T04:45:55.194Z,12.63
2023-05-21T04:48:26.929Z,12.54
2023-05-21T04:50:54.192Z,12.67
2023-05-21T04:53:21.040Z,12.76
2023-05-21T04:55:48.100Z,12.76
2023-05-21T04:58:18.014Z,12.77
2023-05-21T05:00:47.024Z,12.84
2023-05-21T05:03:14.548Z,12.76
2023-05-21T05:05:41.988Z,12.77
2023-05-21T05:08:08.759Z,12.82
2023-05-21T05:10:36.021Z,12.69
2023-05-21T05:13:02.785Z,12.79
2023-05-21T05:15:30.058Z,12.72
2023-05-21T05:17:57.267Z,12.72
2023-05-21T05:20:24.237Z,12.67
2023-05-21T05:22:51.417Z,12.51
2023-05-21T05:25:18.210Z,12.52
2023-05-21T05:27:45.070Z,12.61
2023-05-21T05:30:12.232Z,12.51
2023-05-21T05:32:39.010Z,12.47
2023-05-21T05:35:06.568Z,12.45
2023-05-21T05:37:33.825Z,12.31
2023-05-21T05:40:00.699Z,12.40
2023-05-21T05:42:27.399Z,12.61
2023-05-21T05:44:54.236Z,12.44
2023-05-21T05:47:21.933Z,12.61
2023-05-21T05:49:50.475Z,12.58
2023-05-21T05:52:17.363Z,12.47
2023-05-21T05:54:44.071Z,12.54
2023-05-21T05:57:12.123Z,12.60
2023-05-21T05:59:38.833Z,12.41
2023-05-21T06:02:05.536Z,12.46
2023-05-21T06:04:32.505Z,12.40
2023-05-21T06:07:00.006Z,12.47
2023-05-21T06:09:26.882Z,12.34
2023-05-21T06:11:53.601Z,12.28
2023-05-21T06:14:21.029Z,12.30
2023-05-21T06:16:47.904Z,11.83
2023-05-21T06:19:14.729Z,11.97
2023-05-21T06:21:41.538Z,11.97
2023-05-21T06:24:08.255Z,11.85
2023-05-21T06:26:34.993Z,12.01
2023-05-21T06:29:02.462Z,11.89
2023-05-21T06:31:29.204Z,11.76
2023-05-21T06:33:56.394Z,11.80
2023-05-21T06:36:23.216Z,11.86
2023-05-21T06:38:49.859Z,11.78
2023-05-21T06:41:16.581Z,11.75
2023-05-21T06:43:43.278Z,11.88
2023-05-21T06:46:10.103Z,11.93
2023-05-21T06:48:37.027Z,11.84
2023-05-21T06:51:03.912Z,11.78
2023-05-21T06:53:30.638Z,11.76
2023-05-21T06:55:57.338Z,11.90
2023-05-21T06:58:24.213Z,11.86
2023-05-21T07:00:51.078Z,11.96
2023-05-21T07:03:18.025Z,11.97
2023-05-21T07:05:45.395Z,11.94
2023-05-21T07:08:12.387Z,11.90
2023-05-21T07:10:39.189Z,12.03
2023-05-21T07:13:06.069Z,11.90
2023-05-21T07:15:32.801Z,11.86
2023-05-21T07:17:59.649Z,11.89
2023-05-21T07:20:26.379Z,12.05
2023-05-21T07:22:53.072Z,11.99
2023-05-21T07:25:19.928Z,12.04
2023-05-21T07:27:46.990Z,11.90
2023-05-21T07:30:14.904Z,12.05
2023-05-21T07:32:42.204Z,12.03
2023-05-21T07:35:09.349Z,11.93
2023-05-21T07:37:36.271Z,12.02
2023-05-21T07:40:03.084Z,12.27
2023-05-21T07:42:30.713Z,12.33
2023-05-21T07:44:57.560Z,12.32
2023-05-21T07:47:24.290Z,12.27
2023-05-21T07:49:51.063Z,12.45
2023-05-21T07:52:17.874Z,12.48
2023-05-21T07:54:44.530Z,12.43
2023-05-21T07:57:11.403Z,12.66
2023-05-21T07:59:38.185Z,12.73
2023-05-21T08:02:05.098Z,12.49
2023-05-21T08:04:32.020Z,12.84
2023-05-21T08:06:58.933Z,12.92
2023-05-21T08:09:26.181Z,12.71
2023-05-21T08:11:53.086Z,12.59
2023-05-21T08:14:19.759Z,12.34
2023-05-21T08:16:46.829Z,12.58
2023-05-21T08:19:13.664Z,12.82
2023-05-21T08:21:40.508Z,12.61
2023-05-21T08:24:07.671Z,12.49
2023-05-21T08:26:34.431Z,12.71
2023-05-21T08:29:01.187Z,12.70
2023-05-21T08:31:28.292Z,12.92
2023-05-21T08:33:56.785Z,12.86
2023-05-21T08:36:23.821Z,13.04
2023-05-21T08:38:50.863Z,13.01
2023-05-21T08:41:22.144Z,12.85
2023-05-21T08:43:56.825Z,12.91
2023-05-21T08:46:25.153Z,12.58
2023-05-21T08:48:56.038Z,12.87
2023-05-21T08:51:22.814Z,13.04
2023-05-21T08:53:50.688Z,13.34
2023-05-21T08:56:18.369Z,13.39
2023-05-21T08:58:49.134Z,13.43
2023-05-21T09:01:19.266Z,13.54
2023-05-21T09:03:47.395Z,13.77
2023-05-21T09:06:14.284Z,13.84
2023-05-21T09:08:46.124Z,13.70
2023-05-21T09:11:14.437Z,13.75
2023-05-21T09:13:43.626Z,13.90
2023-05-21T09:16:10.984Z,13.79
2023-05-21T09:18:37.797Z,13.74
2023-05-21T09:21:27.876Z,13.85
2023-05-21T09:23:57.825Z,13.84
2023-05-21T09:26:25.766Z,13.76
2023-05-21T09:28:56.765Z,13.85
2023-05-21T09:31:24.418Z,14.03
2023-05-21T09:33:51.770Z,13.96
2023-05-21T09:36:22.780Z,14.19
2023-05-21T09:38:51.906Z,13.99
2023-05-21T09:41:22.179Z,13.96
2023-05-21T09:43:49.344Z,13.72
2023-05-21T09:46:17.165Z,13.77
2023-05-21T09:48:44.687Z,13.86
2023-05-21T09:51:11.527Z,13.83
2023-05-21T09:53:59.661Z,13.74
2023-05-21T09:56:30.938Z,13.84
2023-05-21T09:59:04.343Z,13.91
2023-05-21T10:01:33.990Z,14.04
2023-05-21T10:04:02.811Z,14.12
2023-05-21T10:06:31.362Z,14.13
2023-05-21T10:09:04.639Z,14.27
2023-05-21T10:11:32.650Z,14.30
2023-05-21T10:14:07.722Z,14.21
2023-05-21T10:16:41.426Z,14.26
2023-05-21T10:19:11.816Z,14.08
2023-05-21T10:21:40.013Z,14.16
2023-05-21T10:24:09.537Z,14.19
2023-05-21T10:26:36.844Z,14.06
2023-05-21T10:29:03.667Z,13.96
2023-05-21T10:31:31.831Z,13.93
2023-05-21T10:33:59.589Z,14.12
2023-05-21T10:36:31.809Z,14.08
2023-05-21T10:39:00.757Z,14.20
2023-05-21T10:41:28.289Z,14.12
2023-05-21T10:44:11.226Z,14.11
2023-05-21T10:47:29.286Z,14.25
2023-05-21T10:50:26.913Z,14.37
2023-05-21T10:53:13.749Z,14.28
2023-05-21T10:55:58.839Z,14.12
2023-05-21T10:58:40.649Z,14.27
2023-05-21T11:01:08.028Z,14.22
2023-05-21T11:03:37.733Z,14.31
2023-05-21T11:06:08.662Z,14.19
2023-05-21T11:08:37.397Z,14.26
2023-05-21T11:11:05.151Z,14.23
2023-05-21T11:13:52.165Z,14.20
2023-05-21T11:16:21.236Z,14.22
2023-05-21T11:18:48.014Z,14.10
2023-05-21T11:21:21.137Z,13.94
2023-05-21T11:23:50.629Z,14.14
2023-05-21T11:26:22.745Z,14.11
2023-05-21T11:29:04.441Z,14.21
2023-05-21T11:31:39.452Z,14.32
2023-05-21T11:34:28.285Z,14.06
2023-05-21T11:37:29.441Z,14.03
2023-05-21T11:40:16.310Z,14.12
2023-05-21T11:42:44.223Z,14.00
2023-05-21T11:45:11.466Z,14.16
2023-05-21T11:47:40.274Z,14.22
2023-05-21T11:50:14.673Z,14.12
2023-05-21T11:52:42.320Z,14.34
2023-05-21T11:55:09.849Z,14.14
2023-05-21T11:57:38.018Z,14.30
2023-05-21T12:00:13.981Z,14.40
2023-05-21T12:02:48.062Z,14.55
2023-05-21T12:05:16.046Z,14.38
2023-05-21T12:07:43.137Z,14.40
2023-05-21T12:10:10.809Z,14.25
2023-05-21T12:12:53.971Z,14.04
2023-05-21T12:15:24.438Z,13.99
2023-05-21T12:17:53.106Z,13.96
2023-05-21T12:20:20.921Z,14.10
2023-05-21T12:22:50.148Z,13.91
2023-05-21T12:25:21.209Z,13.87
2023-05-21T12:27:52.831Z,14.07
2023-05-21T12:30:20.128Z,14.09
2023-05-21T12:32:46.953Z,14.11
2023-05-21T12:35:24.520Z,14.05
2023-05-21T12:37:52.126Z,14.00
2023-05-21T12:40:22.281Z,14.11
2023-05-21T12:42:49.951Z,14.16
2023-05-21T12:45:18.805Z,14.13
2023-05-21T12:47:50.348Z,14.41
2023-05-21T12:50:21.229Z,14.55
2023-05-21T12:52:48.284Z,14.38
2023-05-21T12:55:15.450Z,14.47
2023-05-21T12:57:43.955Z,14.59
2023-05-21T13:00:11.483Z,14.52
2023-05-21T13:02:44.170Z,14.40
2023-05-21T13:05:19.606Z,14.60
2023-05-21T13:07:47.648Z,14.59
2023-05-21T13:10:16.128Z,14.73
2023-05-21T13:12:44.336Z,14.78
2023-05-21T13:15:11.905Z,14.69
2023-05-21T13:17:38.787Z,14.61
2023-05-21T13:20:14.338Z,14.41
2023-05-21T13:22:43.552Z,14.42
2023-05-21T13:25:11.699Z,14.41
2023-05-21T13:27:39.703Z,14.48
2023-05-21T13:30:07.404Z,14.48
2023-05-21T13:32:34.681Z,14.57
2023-05-21T13:35:05.340Z,14.63
2023-05-21T13:37:32.550Z,14.49
2023-05-21T13:39:59.257Z,14.62
2023-05-21T13:42:26.133Z,14.49
2023-05-21T13:44:53.151Z,14.60
2023-05-21T13:47:20.047Z,14.61
2023-05-21T13:49:46.897Z,14.75
2023-05-21T13:52:13.575Z,14.68
2023-05-21T13:54:40.695Z,14.80
2023-05-21T13:57:07.585Z,14.80
2023-05-21T13:59:34.372Z,14.87
2023-05-21T14:02:01.294Z,14.91
2023-05-21T14:04:28.287Z,14.80
2023-05-21T14:06:55.247Z,14.84
2023-05-21T14:09:23.445Z,14.93
2023-05-21T14:11:50.243Z,14.92
2023-05-21T14:14:19.139Z,14.76
2023-05-21T14:16:47.282Z,14.81
2023-05-21T14:19:17.421Z,14.68
2023-05-21T14:21:44.453Z,14.57
2023-05-21T14:24:11.208Z,14.64
2023-05-21T14:26:41.010Z,14.69
2023-05-21T14:29:08.019Z,14.67
2023-05-21T14:31:34.825Z,14.76
2023-05-21T14:34:02.959Z,14.69
2023-05-21T14:36:30.083Z,14.45
2023-05-21T14:38:56.972Z,14.56
2023-05-21T14:41:27.907Z,14.58
2023-05-21T14:43:54.725Z,14.61
2023-05-21T14:46:21.865Z,14.58
2023-05-21T14:48:48.766Z,14.56
2023-05-21T14:51:15.733Z,14.44
2023-05-21T14:53:42.420Z,14.48
2023-05-21T14:56:09.235Z,14.59
2023-05-21T14:58:35.920Z,14.57
2023-05-21T15:01:04.380Z,14.66
2023-05-21T15:03:31.354Z,14.38
2023-05-21T15:05:58.689Z,14.41
2023-05-21T15:08:25.868Z,14.51
2023-05-21T15:10:52.971Z,14.62
2023-05-21T15:13:21.422Z,14.39
2023-05-21T15:15:48.733Z,14.23
2023-05-21T15:18:15.937Z,14.48
2023-05-21T15:20:42.673Z,14.64
2023-05-21T15:23:16.883Z,14.65
2023-05-21T15:25:44.763Z,14.65
2023-05-21T15:28:14.596Z,14.67
2023-05-21T15:30:41.371Z,14.50
2023-05-21T15:33:08.401Z,14.32
2023-05-21T15:35:36.372Z,14.41
2023-05-21T15:38:03.583Z,14.36
2023-05-21T15:40:30.299Z,14.41
2023-05-21T15:42:57.093Z,14.42
2023-05-21T15:45:24.876Z,14.38
2023-05-21T15:47:51.735Z,14.29
2023-05-21T15:50:18.566Z,13.98
2023-05-21T15:52:45.317Z,14.33
2023-05-21T15:55:12.096Z,14.41
2023-05-21T15:57:38.786Z,14.14
2023-05-21T16:00:06.410Z,14.30
2023-05-21T16:02:33.310Z,14.31
2023-05-21T16:04:59.966Z,14.04
2023-05-21T16:07:26.664Z,14.16
2023-05-21T16:09:53.445Z,14.32
2023-05-21T16:12:20.810Z,14.23
2023-05-21T16:14:50.182Z,14.28
2023-05-21T16:17:18.081Z,14.23
2023-05-21T16:19:44.746Z,14.30
2023-05-21T16:22:11.422Z,14.46
2023-05-21T16:24:38.376Z,14.34
2023-05-21T16:27:05.288Z,14.52
2023-05-21T16:29:32.018Z,14.41
2023-05-21T16:31:58.773Z,14.57
2023-05-21T16:34:25.770Z,14.55
2023-05-21T16:36:52.499Z,14.48
2023-05-21T16:39:19.201Z,14.37
2023-05-21T16:41:46.178Z,14.39
2023-05-21T16:44:13.001Z,14.18
2023-05-21T16:46:39.794Z,14.20
2023-05-21T16:49:06.660Z,14.28
2023-05-21T16:51:33.334Z,14.28
2023-05-21T16:54:00.712Z,14.29
2023-05-21T16:56:27.657Z,14.20
2023-05-21T16:58:54.441Z,14.21
2023-05-21T17:01:21.232Z,14.19
2023-05-21T17:03:48.060Z,14.04
2023-05-21T17:06:15.069Z,14.08
2023-05-21T17:08:42.788Z,14.04
2023-05-21T17:11:09.846Z,14.04
2023-05-21T17:13:36.583Z,13.99
2023-05-21T17:16:03.432Z,14.01
2023-05-21T17:18:31.286Z,13.82
2023-05-21T17:20:58.946Z,13.66
2023-05-21T17:23:26.927Z,13.72
2023-05-21T17:25:53.627Z,13.80
2023-05-21T17:28:20.365Z,13.75
2023-05-21T17:30:49.659Z,13.76
2023-05-21T17:33:16.625Z,13.56
2023-05-21T17:35:43.570Z,13.51
2023-05-21T17:38:10.460Z,13.43
2023-05-21T17:40:37.339Z,13.27
2023-05-21T17:43:05.097Z,13.17
2023-05-21T17:45:32.165Z,13.20
2023-05-21T17:48:00.386Z,13.10
2023-05-21T17:50:27.508Z,12.98
2023-05-21T17:52:54.244Z,12.89
2023-05-21T17:55:21.002Z,12.95
2023-05-21T17:57:47.774Z,12.93
2023-05-21T18:00:14.739Z,12.73
2023-05-21T18:02:41.562Z,12.43
2023-05-21T18:05:08.518Z,12.71
2023-05-21T18:07:37.866Z,12.56
2023-05-21T18:10:05.036Z,12.49
2023-05-21T18:12:31.757Z,12.57
2023-05-21T18:14:58.532Z,12.51
2023-05-21T18:17:25.286Z,12.54
2023-05-21T18:19:51.997Z,12.34
2023-05-21T18:22:18.703Z,12.41
2023-05-21T18:24:46.278Z,12.39
2023-05-21T18:27:13.637Z,12.42
2023-05-21T18:29:40.502Z,12.43
2023-05-21T18:32:07.792Z,12.29
2023-05-21T18:34:34.627Z,12.34
2023-05-21T18:37:01.391Z,12.42
2023-05-21T18:39:29.469Z,12.32
2023-05-21T18:42:11.510Z,12.17
2023-05-21T18:44:39.439Z,12.25
2023-05-21T18:47:07.691Z,12.09
2023-05-21T18:49:35.935Z,12.09
2023-05-21T18:52:04.031Z,12.11
2023-05-21T18:54:30.860Z,12.25
2023-05-21T18:57:00.226Z,12.20
2023-05-21T18:59:29.586Z,12.24
2023-05-21T19:01:56.329Z,12.34
2023-05-21T19:04:23.094Z,12.24
2023-05-21T19:06:49.964Z,12.28
2023-05-21T19:09:16.992Z,12.21
2023-05-21T19:11:44.082Z,12.21
2023-05-21T19:14:10.968Z,12.27
2023-05-21T19:16:37.704Z,12.16
2023-05-21T19:19:04.530Z,12.16
2023-05-21T19:21:31.970Z,12.10
2023-05-21T19:23:58.765Z,12.05
2023-05-21T19:26:25.636Z,12.07
2023-05-21T19:28:55.544Z,11.94
2023-05-21T19:31:23.331Z,12.00
2023-05-21T19:33:50.649Z,11.86
2023-05-21T19:36:18.776Z,11.72
2023-05-21T19:38:48.161Z,11.76
2023-05-21T19:41:19.157Z,11.91
2023-05-21T19:43:46.236Z,11.89
2023-05-21T19:46:15.227Z,11.57
2023-05-21T19:48:44.105Z,11.68
2023-05-21T19:51:11.072Z,11.66
2023-05-21T19:53:38.070Z,11.58
2023-05-21T19:56:04.829Z,11.57
2023-05-21T19:58:31.602Z,11.58
2023-05-21T20:00:59.327Z,11.62
2023-05-21T20:03:26.993Z,11.54
2023-05-21T20:05:54.577Z,11.59
2023-05-21T20:08:21.631Z,11.54
2023-05-21T20:10:51.408Z,11.56
2023-05-21T20:13:18.595Z,11.60
2023-05-21T20:15:45.627Z,11.60
2023-05-21T20:18:12.993Z,11.54
2023-05-21T20:20:41.435Z,11.56
2023-05-21T20:23:08.627Z,11.70
2023-05-21T20:25:35.428Z,11.64
2023-05-21T20:28:02.721Z,11.64
2023-05-21T20:30:33.602Z,11.57
2023-05-21T20:33:01.903Z,11.59
2023-05-21T20:35:28.966Z,11.59
2023-05-21T20:37:55.822Z,11.62
2023-05-21T20:40:22.559Z,11.73
2023-05-21T20:42:53.091Z,11.69
2023-05-21T20:45:22.054Z,11.68
2023-05-21T20:47:50.121Z,11.67
2023-05-21T20:50:17.829Z,11.59
2023-05-21T20:52:47.071Z,11.60
2023-05-21T20:55:14.785Z,11.60
2023-05-21T20:57:42.204Z,11.63
2023-05-21T21:00:12.863Z,11.53
2023-05-21T21:02:39.805Z,11.29
2023-05-21T21:05:10.298Z,11.51
2023-05-21T21:07:37.934Z,11.26
2023-05-21T21:10:05.383Z,11.30
2023-05-21T21:12:32.120Z,11.40
2023-05-21T21:14:58.799Z,11.19
2023-05-21T21:17:28.555Z,11.33
2023-05-21T21:19:55.488Z,11.45
2023-05-21T21:22:22.205Z,11.52
2023-05-21T21:24:49.073Z,11.54
2023-05-21T21:27:15.957Z,11.59
2023-05-21T21:29:42.705Z,11.61
2023-05-21T21:32:09.479Z,11.59
2023-05-21T21:34:36.174Z,11.73
2023-05-21T21:37:03.018Z,11.67
2023-05-21T21:39:29.749Z,11.64
2023-05-21T21:41:56.430Z,11.73
2023-05-21T21:44:23.107Z,11.71
2023-05-21T21:46:50.864Z,11.60
2023-05-21T21:49:17.657Z,11.49
2023-05-21T21:51:44.701Z,11.59
2023-05-21T21:54:11.798Z,11.64
2023-05-21T21:56:38.530Z,11.79
2023-05-21T21:59:05.413Z,11.73
2023-05-21T22:01:33.644Z,11.79
2023-05-21T22:04:00.562Z,11.77
2023-05-21T22:06:27.825Z,11.77
2023-05-21T22:08:54.942Z,11.81
2023-05-21T22:11:22.067Z,11.68
2023-05-21T22:13:49.114Z,11.77
2023-05-21T22:16:15.996Z,11.65
2023-05-21T22:18:42.758Z,11.64
2023-05-21T22:21:10.411Z,11.68
2023-05-21T22:23:38.116Z,11.72
2023-05-21T22:26:04.934Z,11.70
2023-05-21T22:28:31.699Z,11.79
2023-05-21T22:30:59.159Z,11.70
2023-05-21T22:33:26.921Z,11.63
2023-05-21T22:35:54.525Z,11.59
2023-05-21T22:38:21.646Z,11.60
2023-05-21T22:40:48.482Z,11.55
2023-05-21T22:43:15.368Z,11.59
2023-05-21T22:45:42.334Z,11.44
2023-05-21T22:48:09.836Z,11.44
2023-05-21T22:50:38.325Z,11.42
2023-05-21T22:53:05.837Z,11.38
2023-05-21T22:55:32.626Z,11.48
2023-05-21T22:58:00.395Z,11.15
2023-05-21T23:00:27.410Z,11.06
2023-05-21T23:02:54.840Z,11.18
2023-05-21T23:05:22.465Z,11.03
2023-05-21T23:07:49.408Z,11.11
2023-05-21T23:10:16.218Z,11.11
2023-05-21T23:12:43.053Z,11.08
2023-05-21T23:15:10.939Z,11.13
2023-05-21T23:17:38.652Z,10.96
2023-05-21T23:20:07.473Z,10.96
2023-05-21T23:22:35.487Z,11.05
2023-05-21T23:25:02.437Z,10.94
2023-05-21T23:27:29.361Z,10.64
2023-05-21T23:29:56.520Z,10.70
2023-05-21T23:32:23.656Z,10.55
2023-05-21T23:34:50.829Z,10.57
2023-05-21T23:37:17.778Z,10.65
2023-05-21T23:39:48.321Z,10.54
2023-05-21T23:42:18.590Z,10.82
2023-05-21T23:44:45.351Z,10.88
2023-05-21T23:47:12.253Z,11.12
2023-05-21T23:49:39.517Z,11.05
2023-05-21T23:52:06.769Z,11.22
2023-05-21T23:54:33.534Z,11.31
2023-05-21T23:57:02.312Z,11.55
2023-05-21T23:59:29.334Z,11.56
